Time;durP1;ratioP1;P1;durP2;ratioP2;P2;SDS_P1;SDS_P2;PMS_P1;PMS_P2;Temp;Humidity;BMP_temperature;BMP_pressure;BME280_temperature;BME280_humidity;BME280_pressure;Samples;Min_cycle;Max_cycle;Signal;HPM_P1;HPM_P2
2023/02/24 00:01:01;;;;;;;28.00;3.13;;;;;;;;;;5045661;28;20708;-69
2023/02/24 00:03:26;;;;;;;16.50;3.33;;;;;;;;;;5056065;28;20202;-69
2023/02/24 00:05:52;;;;;;;15.03;3.67;;;;;;;;;;5055435;28;20197;-69
2023/02/24 00:08:17;;;;;;;19.73;3.97;;;;;;;;;;5056781;28;20193;-69
2023/02/24 00:10:42;;;;;;;11.30;2.83;;;;;;;;;;5061178;28;20189;-69
2023/02/24 00:13:10;;;;;;;17.97;3.30;;;;;;;;;;5055214;28;20190;-69
2023/02/24 00:15:36;;;;;;;18.97;4.40;;;;;;;;;;5063459;28;20217;-69
2023/02/24 00:18:05;;;;;;;17.17;3.23;;;;;;;;;;5054230;28;20513;-68
2023/02/24 00:20:32;;;;;;;13.40;3.07;;;;;;;;;;5055582;28;20244;-69
2023/02/24 00:22:59;;;;;;;19.37;3.33;;;;;;;;;;5056616;28;20693;-69
2023/02/24 00:25:24;;;;;;;14.77;3.00;;;;;;;;;;5063343;28;20611;-70
2023/02/24 00:27:52;;;;;;;18.07;3.40;;;;;;;;;;5063729;28;20698;-70
2023/02/24 00:30:20;;;;;;;16.80;2.90;;;;;;;;;;5053389;28;20294;-68
2023/02/24 00:32:45;;;;;;;26.97;3.47;;;;;;;;;;5061166;28;20657;-68
2023/02/24 00:35:10;;;;;;;20.13;3.53;;;;;;;;;;5061483;28;20218;-68
2023/02/24 00:37:36;;;;;;;23.40;4.03;;;;;;;;;;5050717;28;20193;-68
2023/02/24 00:40:09;;;;;;;17.90;3.30;;;;;;;;;;5062806;28;20212;-68
2023/02/24 00:42:35;;;;;;;18.50;3.20;;;;;;;;;;5057719;28;20250;-68
2023/02/24 00:45:06;;;;;;;23.77;3.53;;;;;;;;;;5066440;28;20543;-68
2023/02/24 00:47:37;;;;;;;15.60;3.03;;;;;;;;;;5064874;28;20189;-68
2023/02/24 00:50:04;;;;;;;18.37;3.40;;;;;;;;;;5058512;28;20217;-68
2023/02/24 00:52:29;;;;;;;12.10;2.90;;;;;;;;;;5056118;28;20185;-68
2023/02/24 00:54:54;;;;;;;15.50;3.60;;;;;;;;;;5059067;28;20266;-68
2023/02/24 00:57:20;;;;;;;14.13;3.23;;;;;;;;;;5053730;28;20201;-68
2023/02/24 00:59:50;;;;;;;16.33;3.63;;;;;;;;;;5056678;28;20225;-68
2023/02/24 01:02:16;;;;;;;20.90;3.60;;;;;;;;;;5053648;28;20271;-68
2023/02/24 01:04:43;;;;;;;23.30;2.60;;;;;;;;;;5048302;28;20268;-68
2023/02/24 01:07:09;;;;;;;18.70;2.93;;;;;;;;;;5068039;28;20188;-68
2023/02/24 01:09:36;;;;;;;16.53;3.03;;;;;;;;;;5056408;28;20213;-69
2023/02/24 01:12:37;;;;;;;21.57;3.17;;;;;;;;;;5058493;28;20228;-69
2023/02/24 01:15:02;;;;;;;21.33;3.10;;;;;;;;;;5059093;28;20232;-68
2023/02/24 01:17:27;;;;;;;16.60;4.20;;;;;;;;;;5058365;28;20375;-68
2023/02/24 01:19:53;;;;;;;21.27;3.70;;;;;;;;;;5060791;28;20210;-68
2023/02/24 01:22:20;;;;;;;21.30;3.10;;;;;;;;;;5050717;28;20189;-68
2023/02/24 01:24:45;;;;;;;17.53;3.03;;;;;;;;;;5057284;28;20181;-68
2023/02/24 01:27:13;;;;;;;16.73;3.33;;;;;;;;;;5051889;28;20192;-68
2023/02/24 01:29:38;;;;;;;19.37;4.17;;;;;;;;;;5048052;28;20232;-68
2023/02/24 01:32:12;;;;;;;19.37;3.50;;;;;;;;;;5053822;28;20189;-68
2023/02/24 01:34:37;;;;;;;18.87;3.57;;;;;;;;;;5055606;28;20236;-68
2023/02/24 01:37:03;;;;;;;15.70;2.73;;;;;;;;;;5047690;28;20628;-68
2023/02/24 01:39:29;;;;;;;22.17;3.93;;;;;;;;;;5047929;28;20585;-68
2023/02/24 01:41:54;;;;;;;16.40;3.00;;;;;;;;;;5048493;28;20182;-68
2023/02/24 01:44:23;;;;;;;14.93;2.97;;;;;;;;;;5059566;28;20671;-68
2023/02/24 01:46:52;;;;;;;14.93;2.97;;;;;;;;;;5051536;28;20201;-68
2023/02/24 01:49:20;;;;;;;16.20;2.73;;;;;;;;;;5053211;28;20690;-69
2023/02/24 01:51:50;;;;;;;15.07;2.93;;;;;;;;;;5062117;28;20279;-68
2023/02/24 01:54:19;;;;;;;10.00;2.37;;;;;;;;;;5050391;28;20888;-68
2023/02/24 01:56:48;;;;;;;14.57;3.20;;;;;;;;;;5063566;28;20191;-69
2023/02/24 01:59:14;;;;;;;11.67;2.70;;;;;;;;;;5049780;28;20190;-68
2023/02/24 02:01:41;;;;;;;13.70;2.30;;;;;;;;;;5046903;28;20228;-68
2023/02/24 02:04:22;;;;;;;22.27;2.70;;;;;;;;;;5046647;28;20315;-68
2023/02/24 02:06:48;;;;;;;16.93;2.90;;;;;;;;;;5059911;28;20185;-69
2023/02/24 02:09:14;;;;;;;14.07;2.30;;;;;;;;;;5059064;28;20189;-68
2023/02/24 02:11:41;;;;;;;15.57;2.70;;;;;;;;;;5056335;28;20239;-69
2023/02/24 02:14:07;;;;;;;16.60;2.90;;;;;;;;;;5047256;28;20210;-69
2023/02/24 02:16:44;;;;;;;14.47;2.70;;;;;;;;;;5063904;28;20192;-69
2023/02/24 02:19:54;;;;;;;16.67;2.73;;;;;;;;;;5049154;28;20197;-69
2023/02/24 02:22:53;;;;;;;16.03;2.87;;;;;;;;;;5056638;28;20204;-68
2023/02/24 02:25:42;;;;;;;13.13;2.37;;;;;;;;;;5055670;28;20181;-68
2023/02/24 02:28:49;;;;;;;19.80;2.90;;;;;;;;;;5062704;28;20204;-68
2023/02/24 02:31:41;;;;;;;12.10;2.37;;;;;;;;;;5055571;28;20268;-68
2023/02/24 02:34:36;;;;;;;12.10;2.60;;;;;;;;;;5060342;28;20484;-68
2023/02/24 02:37:05;;;;;;;13.73;2.50;;;;;;;;;;5058977;28;20185;-68
2023/02/24 02:39:57;;;;;;;13.83;2.50;;;;;;;;;;5056836;28;20185;-68
2023/02/24 02:42:33;;;;;;;15.13;2.40;;;;;;;;;;5049506;28;20185;-68
2023/02/24 02:45:13;;;;;;;15.57;2.30;;;;;;;;;;5049727;28;20637;-69
2023/02/24 02:48:02;;;;;;;17.13;3.00;;;;;;;;;;5051920;28;20200;-68
2023/02/24 02:50:42;;;;;;;13.40;2.10;;;;;;;;;;5050827;28;20612;-68
2023/02/24 02:53:36;;;;;;;16.90;2.23;;;;;;;;;;5052192;28;20188;-68
2023/02/24 02:56:16;;;;;;;13.27;2.10;;;;;;;;;;5051618;28;20636;-68
2023/02/24 02:58:47;;;;;;;11.53;2.10;;;;;;;;;;5060137;28;20216;-69
2023/02/24 03:01:17;;;;;;;10.93;2.50;;;;;;;;;;5057140;28;20212;-69
2023/02/24 03:03:48;;;;;;;11.60;2.67;;;;;;;;;;5057348;28;20196;-69
2023/02/24 03:06:22;;;;;;;12.00;2.40;;;;;;;;;;5061995;28;20189;-68
2023/02/24 03:09:10;;;;;;;18.70;2.53;;;;;;;;;;5053641;28;20483;-68
2023/02/24 03:11:40;;;;;;;15.90;2.10;;;;;;;;;;5054416;28;20197;-68
2023/02/24 03:14:10;;;;;;;11.37;2.67;;;;;;;;;;5062402;28;20213;-68
2023/02/24 03:16:38;;;;;;;15.90;2.47;;;;;;;;;;5049454;28;20186;-69
2023/02/24 03:19:07;;;;;;;11.77;2.20;;;;;;;;;;5051188;28;20704;-68
2023/02/24 03:21:44;;;;;;;14.80;3.10;;;;;;;;;;5050265;28;20208;-68
2023/02/24 03:24:10;;;;;;;13.90;1.80;;;;;;;;;;5058975;28;20218;-68
2023/02/24 03:26:49;;;;;;;15.73;2.03;;;;;;;;;;5051140;28;20281;-68
2023/02/24 03:29:35;;;;;;;13.37;2.87;;;;;;;;;;5064635;28;20229;-68
2023/02/24 03:32:21;;;;;;;14.03;2.00;;;;;;;;;;5056907;28;20267;-68
2023/02/24 03:34:57;;;;;;;9.03;2.13;;;;;;;;;;5064521;28;20217;-68
2023/02/24 03:37:26;;;;;;;14.17;2.03;;;;;;;;;;5056880;28;20192;-68
2023/02/24 03:40:10;;;;;;;10.63;1.67;;;;;;;;;;5068883;28;20659;-69
2023/02/24 03:42:38;;;;;;;8.33;1.80;;;;;;;;;;5060213;28;20266;-68
2023/02/24 03:45:05;;;;;;;13.57;2.13;;;;;;;;;;5052632;28;20197;-68
2023/02/24 03:47:31;;;;;;;7.63;1.67;;;;;;;;;;5054563;28;20716;-69
2023/02/24 03:49:56;;;;;;;20.30;1.97;;;;;;;;;;5049912;28;20200;-68
2023/02/24 03:52:50;;;;;;;9.27;1.43;;;;;;;;;;5063329;28;20562;-68
2023/02/24 03:55:33;;;;;;;10.00;1.80;;;;;;;;;;5057856;28;20217;-68
2023/02/24 03:58:01;;;;;;;10.67;1.63;;;;;;;;;;5067356;28;20546;-68
2023/02/24 04:00:38;;;;;;;11.53;1.60;;;;;;;;;;5054940;28;20351;-68
2023/02/24 04:03:18;;;;;;;13.73;1.50;;;;;;;;;;5053682;28;20212;-69
2023/02/24 04:05:53;;;;;;;10.57;2.20;;;;;;;;;;5052434;28;20218;-68
2023/02/24 04:08:22;;;;;;;6.53;1.40;;;;;;;;;;5059998;28;20200;-68
2023/02/24 04:10:59;;;;;;;6.33;1.50;;;;;;;;;;5065017;28;20612;-68
2023/02/24 04:13:34;;;;;;;8.67;1.70;;;;;;;;;;5058856;28;20606;-69
2023/02/24 04:16:15;;;;;;;8.73;1.80;;;;;;;;;;5051348;28;20613;-68
2023/02/24 04:18:46;;;;;;;8.20;1.70;;;;;;;;;;5064946;28;20276;-68
2023/02/24 04:21:12;;;;;;;11.77;2.00;;;;;;;;;;5063317;28;20283;-68
2023/02/24 04:23:42;;;;;;;7.73;1.50;;;;;;;;;;5058013;28;20272;-69
2023/02/24 04:26:11;;;;;;;8.03;1.63;;;;;;;;;;5059102;28;20238;-68
2023/02/24 04:28:38;;;;;;;8.10;1.90;;;;;;;;;;5060025;28;20704;-68
2023/02/24 04:31:08;;;;;;;11.77;1.70;;;;;;;;;;5051029;28;20227;-68
2023/02/24 04:33:34;;;;;;;11.43;1.97;;;;;;;;;;5051751;28;20190;-69
2023/02/24 04:36:00;;;;;;;10.73;1.80;;;;;;;;;;5048489;28;20185;-68
2023/02/24 04:38:25;;;;;;;14.70;1.90;;;;;;;;;;5052704;28;20181;-68
2023/02/24 04:40:51;;;;;;;9.13;1.40;;;;;;;;;;5051783;28;20256;-70
2023/02/24 04:43:17;;;;;;;14.67;1.87;;;;;;;;;;5058387;28;20204;-68
2023/02/24 04:45:43;;;;;;;8.80;2.10;;;;;;;;;;5050734;28;20197;-68
2023/02/24 04:48:12;;;;;;;10.47;1.77;;;;;;;;;;5057399;28;20255;-69
2023/02/24 04:50:40;;;;;;;11.67;1.77;;;;;;;;;;5057443;28;20185;-69
2023/02/24 04:53:08;;;;;;;6.97;1.40;;;;;;;;;;5057875;28;20417;-69
2023/02/24 04:55:40;;;;;;;12.27;1.43;;;;;;;;;;5049409;28;20714;-68
2023/02/24 04:58:18;;;;;;;9.70;1.43;;;;;;;;;;5049928;28;20197;-68
2023/02/24 05:00:47;;;;;;;12.17;1.70;;;;;;;;;;5063347;28;20600;-68
2023/02/24 05:03:12;;;;;;;14.30;1.83;;;;;;;;;;5052459;28;20189;-68
2023/02/24 05:05:38;;;;;;;8.93;1.70;;;;;;;;;;5061298;28;20568;-68
2023/02/24 05:08:07;;;;;;;4.43;1.70;;;;;;;;;;5059646;28;20219;-68
2023/02/24 05:10:39;;;;;;;15.63;2.07;;;;;;;;;;5066108;28;20189;-68
2023/02/24 05:13:06;;;;;;;6.53;1.50;;;;;;;;;;5052054;28;20300;-69
2023/02/24 05:15:31;;;;;;;13.77;1.53;;;;;;;;;;5059964;28;20209;-68
2023/02/24 05:18:06;;;;;;;6.70;1.30;;;;;;;;;;5049995;28;20193;-68
2023/02/24 05:23:20;;;;;;;13.57;2.23;;;;;;;;;;5055026;28;20193;-68
2023/02/24 05:25:46;;;;;;;8.70;2.27;;;;;;;;;;5059083;28;20169;-68
2023/02/24 05:28:11;;;;;;;7.47;1.73;;;;;;;;;;5055987;28;20188;-68
2023/02/24 05:30:37;;;;;;;14.07;1.80;;;;;;;;;;5055709;28;20271;-68
2023/02/24 05:33:02;;;;;;;12.07;2.10;;;;;;;;;;5052469;28;20849;-68
2023/02/24 05:35:31;;;;;;;6.77;2.80;;;;;;;;;;5047607;28;20267;-68
2023/02/24 05:37:58;;;;;;;11.53;2.03;;;;;;;;;;5054464;28;20186;-68
2023/02/24 05:40:24;;;;;;;8.33;1.87;;;;;;;;;;5054752;28;20224;-68
2023/02/24 05:42:50;;;;;;;11.07;2.07;;;;;;;;;;5047799;28;20200;-68
2023/02/24 05:45:17;;;;;;;5.17;1.50;;;;;;;;;;5052477;28;20640;-68
2023/02/24 05:47:45;;;;;;;6.10;1.40;;;;;;;;;;5053027;28;20234;-68
2023/02/24 05:50:11;;;;;;;9.80;1.87;;;;;;;;;;5051641;28;20200;-68
2023/02/24 05:52:36;;;;;;;10.33;2.03;;;;;;;;;;5053224;28;20268;-68
2023/02/24 05:55:05;;;;;;;12.17;1.80;;;;;;;;;;5055832;28;20445;-69
2023/02/24 05:57:34;;;;;;;5.60;1.20;;;;;;;;;;5054346;28;20230;-68
2023/02/24 06:00:08;;;;;;;10.13;1.43;;;;;;;;;;5049663;28;20211;-68
2023/02/24 06:02:36;;;;;;;13.83;2.00;;;;;;;;;;5050183;28;20644;-68
2023/02/24 06:05:03;;;;;;;9.63;1.80;;;;;;;;;;5048505;28;20189;-68
2023/02/24 06:07:33;;;;;;;9.73;2.30;;;;;;;;;;5054146;28;20212;-68
2023/02/24 06:10:00;;;;;;;9.60;1.90;;;;;;;;;;5063624;28;20257;-67
2023/02/24 06:12:29;;;;;;;9.97;1.73;;;;;;;;;;5052486;28;20699;-68
2023/02/24 06:14:54;;;;;;;14.50;1.63;;;;;;;;;;5051632;28;20213;-68
2023/02/24 06:17:21;;;;;;;6.83;1.67;;;;;;;;;;5050972;28;20185;-68
2023/02/24 06:19:50;;;;;;;10.23;1.57;;;;;;;;;;5050703;28;20660;-68
2023/02/24 06:22:20;;;;;;;11.93;2.23;;;;;;;;;;5055850;28;20177;-68
2023/02/24 06:24:48;;;;;;;11.47;1.90;;;;;;;;;;5059888;28;20192;-68
2023/02/24 06:27:17;;;;;;;12.37;1.80;;;;;;;;;;5065242;28;20862;-68
2023/02/24 06:29:44;;;;;;;11.03;1.87;;;;;;;;;;5047644;28;20233;-68
2023/02/24 06:32:10;;;;;;;10.07;1.60;;;;;;;;;;5056148;28;20192;-70
2023/02/24 06:34:36;;;;;;;9.53;1.80;;;;;;;;;;5051690;28;20209;-68
2023/02/24 06:37:03;;;;;;;8.63;1.93;;;;;;;;;;5058645;28;20185;-68
2023/02/24 06:39:31;;;;;;;8.33;1.57;;;;;;;;;;5053617;28;20449;-68
2023/02/24 06:42:02;;;;;;;8.63;1.80;;;;;;;;;;5049619;28;20303;-68
2023/02/24 06:44:31;;;;;;;8.20;1.60;;;;;;;;;;5047988;28;20284;-69
2023/02/24 06:46:57;;;;;;;10.60;2.10;;;;;;;;;;5052476;28;20197;-69
2023/02/24 06:49:23;;;;;;;9.53;1.60;;;;;;;;;;5049969;28;20181;-68
2023/02/24 06:51:49;;;;;;;7.77;2.10;;;;;;;;;;5048283;28;20211;-69
2023/02/24 06:54:15;;;;;;;16.23;2.27;;;;;;;;;;5056954;28;20678;-69
2023/02/24 06:56:41;;;;;;;11.07;2.00;;;;;;;;;;5055615;28;20200;-68
2023/02/24 06:59:10;;;;;;;13.90;1.70;;;;;;;;;;5056356;28;20218;-68
2023/02/24 07:01:43;;;;;;;9.27;1.73;;;;;;;;;;5070524;28;20244;-68
2023/02/24 07:06:39;;;;;;;6.93;2.23;;;;;;;;;;5067126;28;20176;-68
2023/02/24 07:09:09;;;;;;;12.20;1.93;;;;;;;;;;5064441;28;20439;-68
2023/02/24 07:11:35;;;;;;;11.00;1.83;;;;;;;;;;5058500;28;20267;-68
2023/02/24 07:14:01;;;;;;;11.97;1.90;;;;;;;;;;5051348;28;20704;-68
2023/02/24 07:16:27;;;;;;;10.40;1.87;;;;;;;;;;5062496;28;20257;-67
2023/02/24 07:18:58;;;;;;;8.20;2.40;;;;;;;;;;5056739;28;20530;-67
2023/02/24 07:21:25;;;;;;;12.30;2.00;;;;;;;;;;5054595;28;20292;-68
2023/02/24 07:23:57;;;;;;;8.17;1.70;;;;;;;;;;5056830;28;20276;-67
2023/02/24 07:26:25;;;;;;;9.47;1.63;;;;;;;;;;5051096;28;20707;-68
2023/02/24 07:28:53;;;;;;;7.37;1.67;;;;;;;;;;5054067;28;20229;-68
2023/02/24 07:31:21;;;;;;;14.30;2.47;;;;;;;;;;5051562;28;20588;-68
2023/02/24 07:33:47;;;;;;;11.30;2.77;;;;;;;;;;5050721;28;20201;-68
2023/02/24 07:36:17;;;;;;;11.20;2.00;;;;;;;;;;5049772;28;20610;-68
2023/02/24 07:38:44;;;;;;;6.30;1.80;;;;;;;;;;5053840;28;20795;-67
2023/02/24 07:41:11;;;;;;;8.53;1.80;;;;;;;;;;5054132;28;20221;-68
2023/02/24 07:43:38;;;;;;;8.93;2.20;;;;;;;;;;5057063;28;20275;-68
2023/02/24 07:46:18;;;;;;;14.93;2.67;;;;;;;;;;5051442;28;20193;-68
2023/02/24 07:48:45;;;;;;;5.93;1.67;;;;;;;;;;5051072;28;20238;-69
2023/02/24 07:51:13;;;;;;;10.60;2.33;;;;;;;;;;5056325;28;20215;-69
2023/02/24 07:53:39;;;;;;;9.30;2.17;;;;;;;;;;5053667;28;20235;-70
2023/02/24 07:56:12;;;;;;;7.87;1.67;;;;;;;;;;5054000;28;20186;-69
2023/02/24 07:58:40;;;;;;;14.23;2.00;;;;;;;;;;5065868;28;20191;-69
2023/02/24 08:01:07;;;;;;;8.37;2.17;;;;;;;;;;5058766;28;20220;-71
2023/02/24 08:03:36;;;;;;;16.20;2.13;;;;;;;;;;5053821;28;20496;-71
2023/02/24 08:06:14;;;;;;;14.03;2.37;;;;;;;;;;5060067;28;20190;-71
2023/02/24 08:09:15;;;;;;;8.37;2.03;;;;;;;;;;5064865;28;20181;-71
2023/02/24 08:11:44;;;;;;;13.53;2.37;;;;;;;;;;5048229;28;20219;-72
2023/02/24 08:14:12;;;;;;;7.40;2.23;;;;;;;;;;5051141;28;20205;-70
2023/02/24 08:16:46;;;;;;;13.80;3.03;;;;;;;;;;5056229;28;20186;-71
2023/02/24 08:19:19;;;;;;;11.87;2.57;;;;;;;;;;5056329;28;20181;-72
2023/02/24 08:21:51;;;;;;;11.43;2.37;;;;;;;;;;5062881;28;20189;-72
2023/02/24 08:24:22;;;;;;;10.40;2.73;;;;;;;;;;5054099;28;20603;-72
2023/02/24 08:27:03;;;;;;;12.97;2.90;;;;;;;;;;5052784;28;20194;-73
2023/02/24 08:29:39;;;;;;;8.90;2.40;;;;;;;;;;5056174;28;20304;-73
2023/02/24 08:32:09;;;;;;;6.93;1.97;;;;;;;;;;5054878;28;20184;-73
2023/02/24 08:34:38;;;;;;;16.00;2.87;;;;;;;;;;5059695;28;20240;-73
2023/02/24 08:37:04;;;;;;;11.13;2.80;;;;;;;;;;5049579;28;20213;-73
2023/02/24 08:39:32;;;;;;;17.33;3.73;;;;;;;;;;5052406;28;20197;-73
2023/02/24 08:41:58;;;;;;;14.27;2.80;;;;;;;;;;5050852;28;20238;-73
2023/02/24 08:44:25;;;;;;;15.23;3.70;;;;;;;;;;5053034;28;20181;-72
2023/02/24 08:46:52;;;;;;;12.53;2.97;;;;;;;;;;5053178;28;20221;-73
2023/02/24 08:49:18;;;;;;;11.30;2.73;;;;;;;;;;5049308;28;20200;-71
2023/02/24 08:51:46;;;;;;;9.87;2.53;;;;;;;;;;5047647;28;20213;-72
2023/02/24 08:54:17;;;;;;;9.43;2.77;;;;;;;;;;5047690;28;20202;-72
2023/02/24 08:56:47;;;;;;;18.30;2.93;;;;;;;;;;5050730;28;20255;-71
2023/02/24 09:02:23;;;;;;;11.40;2.17;;;;;;;;;;5064809;28;20201;-71
2023/02/24 09:04:55;;;;;;;10.67;2.23;;;;;;;;;;5058118;28;20199;-71
2023/02/24 09:07:34;;;;;;;15.30;2.80;;;;;;;;;;5062581;28;20288;-70
2023/02/24 09:10:03;;;;;;;11.47;3.70;;;;;;;;;;5055793;28;20681;-70
2023/02/24 09:12:29;;;;;;;15.20;3.83;;;;;;;;;;5055489;28;20191;-72
2023/02/24 09:14:59;;;;;;;16.73;3.53;;;;;;;;;;5060485;28;20205;-71
2023/02/24 09:17:39;;;;;;;12.90;2.93;;;;;;;;;;5055995;28;20184;-71
2023/02/24 09:22:56;;;;;;;19.47;3.33;;;;;;;;;;5060530;28;20181;-71
2023/02/24 09:25:24;;;;;;;14.87;3.10;;;;;;;;;;5058844;28;20181;-71
2023/02/24 09:27:53;;;;;;;14.67;2.80;;;;;;;;;;5058385;28;20272;-70
2023/02/24 09:30:36;;;;;;;13.53;3.27;;;;;;;;;;5054904;28;20229;-70
2023/02/24 09:33:16;;;;;;;9.13;2.87;;;;;;;;;;5063236;28;20242;-70
2023/02/24 09:36:08;;;;;;;9.83;2.87;;;;;;;;;;5057833;28;20224;-70
2023/02/24 09:39:08;;;;;;;10.63;2.40;;;;;;;;;;5062458;28;20184;-71
2023/02/24 09:44:36;;;;;;;17.63;3.10;;;;;;;;;;5058758;28;20180;-71
2023/02/24 09:47:29;;;;;;;19.43;3.77;;;;;;;;;;5055057;28;20185;-70
2023/02/24 09:49:59;;;;;;;17.43;2.80;;;;;;;;;;5056403;28;20534;-70
2023/02/24 09:52:41;;;;;;;13.47;3.00;;;;;;;;;;5049551;28;20189;-71
2023/02/24 09:55:59;;;;;;;14.60;3.10;;;;;;;;;;5056314;28;20223;-71
2023/02/24 09:58:38;;;;;;;9.37;2.50;;;;;;;;;;5056595;28;20229;-71
2023/02/24 10:01:19;;;;;;;12.80;3.30;;;;;;;;;;5055980;28;20537;-70
2023/02/24 10:04:03;;;;;;;11.00;3.00;;;;;;;;;;5053529;28;20266;-72
2023/02/24 10:06:38;;;;;;;13.77;3.10;;;;;;;;;;5054929;28;20201;-70
2023/02/24 10:09:20;;;;;;;10.50;3.17;;;;;;;;;;5058456;28;20664;-69
2023/02/24 10:11:54;;;;;;;14.47;3.70;;;;;;;;;;5058637;28;20193;-69
2023/02/24 10:14:37;;;;;;;16.13;3.53;;;;;;;;;;5060409;28;20769;-71
2023/02/24 10:17:39;;;;;;;13.33;3.83;;;;;;;;;;5061648;28;20218;-68
2023/02/24 10:20:29;;;;;;;12.77;2.87;;;;;;;;;;5061736;28;20204;-70
2023/02/24 10:23:23;;;;;;;19.37;4.30;;;;;;;;;;5051920;28;20571;-71
2023/02/24 10:25:55;;;;;;;16.00;3.43;;;;;;;;;;5057538;28;20345;-72
2023/02/24 10:28:34;;;;;;;16.00;3.40;;;;;;;;;;5061022;28;20220;-71
2023/02/24 10:31:37;;;;;;;12.70;4.27;;;;;;;;;;5064611;28;20235;-73
2023/02/24 10:34:11;;;;;;;15.40;3.40;;;;;;;;;;5062194;28;20702;-70
2023/02/24 10:36:38;;;;;;;16.27;3.57;;;;;;;;;;5063941;28;20200;-69
2023/02/24 10:39:15;;;;;;;14.57;3.70;;;;;;;;;;5063059;28;20188;-69
2023/02/24 10:41:55;;;;;;;14.17;3.53;;;;;;;;;;5062082;28;20192;-71
2023/02/24 10:44:24;;;;;;;13.57;4.20;;;;;;;;;;5051176;28;20181;-71
2023/02/24 10:47:12;;;;;;;15.13;3.33;;;;;;;;;;5057071;28;20185;-70
2023/02/24 10:49:55;;;;;;;13.33;3.73;;;;;;;;;;5071369;28;20192;-69
2023/02/24 10:52:49;;;;;;;16.53;4.10;;;;;;;;;;5070827;28;20396;-73
2023/02/24 10:55:27;;;;;;;15.10;3.80;;;;;;;;;;5069620;28;20212;-72
2023/02/24 10:58:14;;;;;;;21.67;5.03;;;;;;;;;;5064853;28;20293;-69
2023/02/24 11:03:42;;;;;;;9.50;3.60;;;;;;;;;;5056808;28;20209;-70
2023/02/24 11:17:52;;;;;;;12.83;4.20;;;;;;;;;;5052595;28;20275;-69
2023/02/24 11:20:32;;;;;;;13.23;3.90;;;;;;;;;;5057937;28;20196;-68
2023/02/24 11:23:00;;;;;;;9.77;4.70;;;;;;;;;;5051908;28;20268;-68
2023/02/24 11:25:35;;;;;;;12.07;4.30;;;;;;;;;;5065402;28;20192;-69
2023/02/24 11:28:01;;;;;;;15.70;4.77;;;;;;;;;;5059078;28;20184;-69
2023/02/24 11:30:46;;;;;;;13.90;4.87;;;;;;;;;;5049849;28;20229;-68
2023/02/24 11:33:33;;;;;;;16.90;4.73;;;;;;;;;;5054889;28;20193;-69
2023/02/24 11:36:16;;;;;;;12.17;4.90;;;;;;;;;;5052158;28;20300;-69
2023/02/24 11:39:00;;;;;;;13.33;4.80;;;;;;;;;;5048841;28;20610;-68
2023/02/24 11:41:51;;;;;;;19.20;5.23;;;;;;;;;;5057980;28;20200;-69
2023/02/24 11:44:33;;;;;;;11.27;4.73;;;;;;;;;;5048274;28;20188;-68
2023/02/24 11:47:06;;;;;;;9.87;4.63;;;;;;;;;;5056688;28;20196;-69
2023/02/24 11:49:41;;;;;;;14.90;4.83;;;;;;;;;;5057817;28;20193;-70
2023/02/24 11:52:14;;;;;;;12.47;5.40;;;;;;;;;;5053118;28;20294;-71
2023/02/24 11:54:44;;;;;;;15.17;5.10;;;;;;;;;;5050877;28;20228;-69
2023/02/24 11:57:18;;;;;;;14.37;5.20;;;;;;;;;;5051970;28;20197;-68
2023/02/24 12:00:12;;;;;;;11.87;4.90;;;;;;;;;;5054213;28;20177;-68
2023/02/24 12:02:59;;;;;;;12.07;4.97;;;;;;;;;;5051290;28;20224;-69
2023/02/24 12:05:33;;;;;;;11.33;4.50;;;;;;;;;;5055242;28;20581;-69
2023/02/24 12:08:28;;;;;;;11.77;4.40;;;;;;;;;;5060355;28;20192;-68
2023/02/24 12:11:02;;;;;;;10.90;4.60;;;;;;;;;;5048189;28;20663;-69
2023/02/24 12:13:40;;;;;;;8.63;4.77;;;;;;;;;;5050975;28;20197;-68
2023/02/24 12:16:13;;;;;;;6.47;4.70;;;;;;;;;;5049888;28;20241;-68
2023/02/24 12:19:14;;;;;;;15.27;4.73;;;;;;;;;;5051827;28;20239;-69
2023/02/24 12:21:43;;;;;;;8.47;4.50;;;;;;;;;;5053175;28;20343;-68
2023/02/24 12:24:11;;;;;;;14.37;4.77;;;;;;;;;;5048423;28;20596;-68
2023/02/24 12:27:07;;;;;;;7.57;3.88;;;;;;;;;;5065504;28;20185;-68
2023/02/24 12:30:32;;;;;;;7.00;3.50;;;;;;;;;;5009408;28;1084177;-68
2023/02/24 12:33:16;;;;;;;7.15;3.28;;;;;;;;;;5082548;28;20221;-68
2023/02/24 12:35:50;;;;;;;9.00;3.55;;;;;;;;;;5067815;28;20680;-68
2023/02/24 12:38:39;;;;;;;9.57;3.00;;;;;;;;;;5049035;28;20187;-68
2023/02/24 12:41:17;;;;;;;10.45;2.72;;;;;;;;;;5060491;28;20519;-68
2023/02/24 12:44:10;;;;;;;8.75;2.97;;;;;;;;;;5047691;28;20185;-68
2023/02/24 12:46:37;;;;;;;7.93;3.15;;;;;;;;;;5060253;28;20241;-68
2023/02/24 12:49:17;;;;;;;8.45;3.13;;;;;;;;;;5067091;28;20259;-69
2023/02/24 12:52:06;;;;;;;15.93;3.45;;;;;;;;;;5067745;28;20339;-71
2023/02/24 12:54:40;;;;;;;13.07;3.92;;;;;;;;;;5046362;28;20642;-72
2023/02/24 12:57:27;;;;;;;14.93;4.50;;;;;;;;;;5048174;28;20283;-71
2023/02/24 12:59:53;;;;;;;13.50;4.50;;;;;;;;;;5055010;28;20224;-72
2023/02/24 13:02:27;;;;;;;11.15;4.10;;;;;;;;;;5060461;28;20645;-71
2023/02/24 13:05:18;;;;;;;16.13;4.53;;;;;;;;;;5057741;28;20389;-71
2023/02/24 13:07:48;;;;;;;16.65;3.90;;;;;;;;;;5073899;28;20184;-67
2023/02/24 13:10:13;;;;;;;18.67;4.47;;;;;;;;;;5060957;28;20188;-69
2023/02/24 13:12:49;;;;;;;15.63;4.35;;;;;;;;;;5051417;28;20196;-69
2023/02/24 13:15:24;;;;;;;18.88;4.30;;;;;;;;;;5058010;28;20209;-69
2023/02/24 13:17:51;;;;;;;19.80;4.47;;;;;;;;;;5056467;28;20358;-68
2023/02/24 13:20:27;;;;;;;21.75;4.10;;;;;;;;;;5057016;28;20197;-68
2023/02/24 13:22:53;;;;;;;18.23;3.72;;;;;;;;;;5063953;28;20562;-69
2023/02/24 13:25:29;;;;;;;21.25;4.40;;;;;;;;;;5062162;28;20177;-68
2023/02/24 13:28:05;;;;;;;20.20;4.57;;;;;;;;;;5062924;28;20192;-68
2023/02/24 13:30:39;;;;;;;24.17;4.30;;;;;;;;;;5066210;28;20597;-68
2023/02/24 13:33:16;;;;;;;20.90;3.72;;;;;;;;;;5050611;28;20181;-68
2023/02/24 13:35:42;;;;;;;25.02;3.78;;;;;;;;;;5047885;28;20201;-68
2023/02/24 13:38:20;;;;;;;19.58;3.95;;;;;;;;;;5047679;28;20272;-69
2023/02/24 13:40:46;;;;;;;23.65;3.67;;;;;;;;;;5056841;28;20322;-70
2023/02/24 13:43:27;;;;;;;23.58;3.10;;;;;;;;;;5064499;28;20549;-72
2023/02/24 13:45:59;;;;;;;19.95;2.95;;;;;;;;;;5051039;28;20257;-73
2023/02/24 13:48:48;;;;;;;15.55;2.63;;;;;;;;;;5047110;28;20189;-72
2023/02/24 13:51:51;;;;;;;15.40;2.53;;;;;;;;;;5049182;28;20706;-75
2023/02/24 13:54:24;;;;;;;16.77;2.47;;;;;;;;;;5053365;28;20734;-73
2023/02/24 13:56:59;;;;;;;19.17;2.63;;;;;;;;;;5048741;28;20193;-72
2023/02/24 13:59:43;;;;;;;12.07;2.23;;;;;;;;;;5046071;28;20659;-71
2023/02/24 14:02:19;;;;;;;14.70;2.57;;;;;;;;;;5053274;28;20177;-71
2023/02/24 14:04:50;;;;;;;17.50;2.53;;;;;;;;;;5055709;28;20204;-71
2023/02/24 14:07:22;;;;;;;13.80;2.90;;;;;;;;;;5053532;28;20200;-71
2023/02/24 14:10:14;;;;;;;15.43;2.30;;;;;;;;;;5051447;28;20194;-71
2023/02/24 14:12:41;;;;;;;21.05;3.13;;;;;;;;;;5056026;28;20586;-70
2023/02/24 14:15:14;;;;;;;20.98;2.35;;;;;;;;;;5046664;28;20284;-70
2023/02/24 14:17:39;;;;;;;17.90;2.07;;;;;;;;;;5054251;28;20215;-70
2023/02/24 14:20:22;;;;;;;15.07;2.23;;;;;;;;;;5052083;28;20272;-70
2023/02/24 14:22:58;;;;;;;16.53;3.30;;;;;;;;;;5055467;28;20195;-70
2023/02/24 14:25:27;;;;;;;23.27;2.20;;;;;;;;;;5062333;28;20450;-72
2023/02/24 14:27:54;;;;;;;16.83;2.57;;;;;;;;;;5060377;28;20698;-70
2023/02/24 14:30:30;;;;;;;23.87;2.90;;;;;;;;;;5049975;28;20674;-70
2023/02/24 14:32:56;;;;;;;24.13;2.67;;;;;;;;;;5052477;28;20185;-69
2023/02/24 14:35:24;;;;;;;19.70;2.43;;;;;;;;;;5057575;28;20212;-70
2023/02/24 14:37:50;;;;;;;15.43;2.33;;;;;;;;;;5051098;28;20684;-70
2023/02/24 14:40:16;;;;;;;13.53;1.93;;;;;;;;;;5053030;28;20536;-69
2023/02/24 14:42:48;;;;;;;12.77;2.70;;;;;;;;;;5058614;28;20186;-69
2023/02/24 14:45:24;;;;;;;17.90;2.20;;;;;;;;;;5051354;28;20185;-68
2023/02/24 14:47:50;;;;;;;19.80;2.80;;;;;;;;;;5050577;28;20301;-69
2023/02/24 14:50:17;;;;;;;12.77;2.50;;;;;;;;;;5050815;28;20511;-69
2023/02/24 14:52:51;;;;;;;14.60;2.30;;;;;;;;;;5051616;28;20614;-68
2023/02/24 14:55:21;;;;;;;14.40;2.17;;;;;;;;;;5049738;28;20210;-69
2023/02/24 14:58:07;;;;;;;14.40;2.00;;;;;;;;;;5058156;28;20184;-70
2023/02/24 15:00:36;;;;;;;8.40;1.40;;;;;;;;;;5050557;28;20288;-70
2023/02/24 15:03:21;;;;;;;6.80;1.23;;;;;;;;;;5051721;28;20663;-71
2023/02/24 15:05:50;;;;;;;7.87;0.80;;;;;;;;;;5057662;28;20189;-72
2023/02/24 15:08:51;;;;;;;5.87;1.37;;;;;;;;;;5054141;28;20192;-70
2023/02/24 15:11:16;;;;;;;6.07;0.73;;;;;;;;;;5045609;28;20217;-70
2023/02/24 15:13:46;;;;;;;4.77;0.73;;;;;;;;;;5050244;28;20224;-71
2023/02/24 15:16:17;;;;;;;3.13;0.67;;;;;;;;;;5051037;28;20224;-70
2023/02/24 15:18:42;;;;;;;9.13;0.90;;;;;;;;;;5059166;28;20181;-69
2023/02/24 15:21:20;;;;;;;12.50;1.27;;;;;;;;;;5057347;28;20193;-70
2023/02/24 15:23:46;;;;;;;4.03;0.83;;;;;;;;;;5055472;28;20204;-69
2023/02/24 15:26:33;;;;;;;7.93;0.73;;;;;;;;;;5052494;28;20188;-69
2023/02/24 15:29:00;;;;;;;9.03;0.97;;;;;;;;;;5052147;28;20224;-69
2023/02/24 15:31:27;;;;;;;3.67;0.90;;;;;;;;;;5053805;28;20192;-69
2023/02/24 15:33:56;;;;;;;12.33;1.23;;;;;;;;;;5055720;28;20217;-70
2023/02/24 15:36:24;;;;;;;6.93;1.10;;;;;;;;;;5053206;28;20209;-70
2023/02/24 15:38:53;;;;;;;12.97;3.00;;;;;;;;;;5052431;28;20185;-70